Jamestown, North Carolina
Current Conditions -  °F | °C
As of 6:54 PM on Saturday 25 Oct 2014 (Local Time) from KGSO Reporting Station
Few Clouds Few Clouds  
Wind Chill: 63°   Ceiling: Unl
Heat Index: 63°   Visibility: 10mi
Dew Point: 37°   Wind: 7mph
Humidity: 38%   Direction: 230°SW
Pressure: 29.9"   Gusts: NA
Location:  35.99°N, 79.94°W
Report Text: KGSO 252254Z 23006KT 10SM FEW250 17/03 A2990 RMK AO2 SLP124 T01720028
Loading
Personal Weather Stations






























Interactive Weather Map
Tropical Storm Tracking
New forecast layout! Learn more

10-Day Weather Forecast

Advertisements
Track Severe Weather on mobile